Time;durP1;ratioP1;P1;durP2;ratioP2;P2;SDS_P1;SDS_P2;PMS_P1;PMS_P2;Temp;Humidity;BMP_temperature;BMP_pressure;BME280_temperature;BME280_humidity;BME280_pressure;Samples;Min_cycle;Max_cycle;Signal;HPM_P1;HPM_P2
2023/08/20 00:02:58;;;;;;;;;;;;;;;;;;;;;
2023/08/20 00:09:13;;;;;;;;;;;;;;;;;;;;;
2023/08/20 00:12:09;;;;;;;;;;;;;;;;;;6049776;23;19928;-90
2023/08/20 00:46:43;;;;;;;;;;;;;;;;;;6160454;22;19920;-90
2023/08/20 00:49:36;;;;;;;;;;;;;;;;;;6183157;22;19926;-90
2023/08/20 00:52:01;;;;;;;;;;;;;;;;;;6239082;22;19915;-90
2023/08/20 00:54:27;;;;;;;;;;;;;;;;;;6234657;22;19965;-90
2023/08/20 00:56:53;;;;;;;;;;;;;;;;;;6213950;22;19923;-91
2023/08/20 00:59:19;;;;;;;;;;;;;;;;;;6235294;22;19927;-90
2023/08/20 01:01:45;;;;;;;;;;;;;;;;;;6211655;22;19923;-90
2023/08/20 01:04:11;;;;;;;;;;;;;;;;;;6215100;22;19916;-90
2023/08/20 01:06:39;;;;;;;;;;;;;;;;;;6237897;22;19930;-90
2023/08/20 01:09:06;;;;;;;;;;;;;;;;;;6214053;22;19941;-90
2023/08/20 01:11:32;;;;;;;;;;;;;;;;;;6213324;22;19938;-90
2023/08/20 01:13:58;;;;;;;;;;;;;;;;;;6215218;22;20364;-90
2023/08/20 01:16:24;;;;;;;;;;;;;;;;;;6212073;22;19958;-90
2023/08/20 01:18:51;;;;;;;;;;;;;;;;;;6215939;22;19915;-90
2023/08/20 01:21:17;;;;;;;;;;;;;;;;;;6212498;22;19974;-91
2023/08/20 01:23:45;;;;;;;;;;;;;;;;;;6213545;22;19945;-90
2023/08/20 01:26:12;;;;;;;;;;;;;;;;;;6214384;22;20316;-91
2023/08/20 01:28:39;;;;;;;;;;;;;;;;;;6212965;22;19966;-91
2023/08/20 01:31:05;;;;;;;;;;;;;;;;;;6209676;22;20316;-89
2023/08/20 01:33:31;;;;;;;;;;;;;;;;;;6234222;22;19923;-90
2023/08/20 01:35:57;;;;;;;;;;;;;;;;;;6238230;22;20250;-89
2023/08/20 01:38:23;;;;;;;;;;;;;;;;;;6209904;22;20663;-91
2023/08/20 01:40:48;;;;;;;;;;;;;;;;;;6212565;22;19923;-91
2023/08/20 01:43:15;;;;;;;;;;;;;;;;;;6211879;22;20339;-91
2023/08/20 01:45:44;;;;;;;;;;;;;;;;;;6236163;22;20382;-90
2023/08/20 01:48:10;;;;;;;;;;;;;;;;;;6211997;22;19933;-90
2023/08/20 01:50:36;;;;;;;;;;;;;;;;;;6209571;22;19994;-91
2023/08/20 01:53:05;;;;;;;;;;;;;;;;;;6237494;22;19931;-89
2023/08/20 01:55:31;;;;;;;;;;;;;;;;;;6209765;22;19919;-90
2023/08/20 01:57:57;;;;;;;;;;;;;;;;;;6214135;22;19919;-90
2023/08/20 02:00:23;;;;;;;;;;;;;;;;;;6211154;22;19919;-90
2023/08/20 02:02:49;;;;;;;;;;;;;;;;;;6237991;22;20462;-91
2023/08/20 02:05:18;;;;;;;;;;;;;;;;;;6214353;22;19986;-89
2023/08/20 02:07:44;;;;;;;;;;;;;;;;;;6215105;22;19919;-90
2023/08/20 02:10:10;;;;;;;;;;;;;;;;;;6240447;22;19957;-90
2023/08/20 02:12:36;;;;;;;;;;;;;;;;;;6210376;22;20517;-91
2023/08/20 02:15:03;;;;;;;;;;;;;;;;;;6212190;22;19958;-90
2023/08/20 02:17:29;;;;;;;;;;;;;;;;;;6232322;22;20331;-90
2023/08/20 02:19:55;;;;;;;;;;;;;;;;;;6212032;22;19919;-92
2023/08/20 02:22:21;;;;;;;;;;;;;;;;;;6210092;22;19926;-91
2023/08/20 02:24:47;;;;;;;;;;;;;;;;;;6237330;22;19930;-90
2023/08/20 02:27:13;;;;;;;;;;;;;;;;;;6209106;22;20777;-90
2023/08/20 02:29:39;;;;;;;;;;;;;;;;;;6233717;22;19923;-90
2023/08/20 02:32:05;;;;;;;;;;;;;;;;;;6212149;22;19923;-90
2023/08/20 02:34:34;;;;;;;;;;;;;;;;;;6207499;22;20018;-91
2023/08/20 02:37:00;;;;;;;;;;;;;;;;;;6210859;22;19915;-90
2023/08/20 02:39:26;;;;;;;;;;;;;;;;;;6209044;22;19941;-90
2023/08/20 02:41:52;;;;;;;;;;;;;;;;;;6209424;22;19923;-90
2023/08/20 02:44:18;;;;;;;;;;;;;;;;;;6209117;22;20335;-90
2023/08/20 02:46:44;;;;;;;;;;;;;;;;;;6211892;22;19957;-90
2023/08/20 02:49:10;;;;;;;;;;;;;;;;;;6211419;22;19961;-90
2023/08/20 02:51:36;;;;;;;;;;;;;;;;;;6208074;22;20474;-90
2023/08/20 02:54:02;;;;;;;;;;;;;;;;;;6235329;22;19926;-90
2023/08/20 02:56:29;;;;;;;;;;;;;;;;;;6208482;22;19919;-91
2023/08/20 02:58:55;;;;;;;;;;;;;;;;;;6236347;22;20355;-91
2023/08/20 03:01:21;;;;;;;;;;;;;;;;;;6234742;22;20340;-90
2023/08/20 03:03:47;;;;;;;;;;;;;;;;;;6211330;22;19998;-91
2023/08/20 03:06:13;;;;;;;;;;;;;;;;;;6236233;22;19994;-91
2023/08/20 03:08:39;;;;;;;;;;;;;;;;;;6236577;22;19950;-90
2023/08/20 03:11:05;;;;;;;;;;;;;;;;;;6237462;22;20145;-91
2023/08/20 03:13:31;;;;;;;;;;;;;;;;;;6233836;22;19915;-90
2023/08/20 03:15:57;;;;;;;;;;;;;;;;;;6209280;22;20403;-91
2023/08/20 03:18:23;;;;;;;;;;;;;;;;;;6231814;22;20040;-91
2023/08/20 03:20:49;;;;;;;;;;;;;;;;;;6207996;22;20034;-91
2023/08/20 03:23:15;;;;;;;;;;;;;;;;;;6211478;22;19919;-91
2023/08/20 03:25:41;;;;;;;;;;;;;;;;;;6234420;22;19919;-90
2023/08/20 03:28:07;;;;;;;;;;;;;;;;;;6237039;22;20276;-91
2023/08/20 03:30:33;;;;;;;;;;;;;;;;;;6207467;22;19918;-91
2023/08/20 03:33:00;;;;;;;;;;;;;;;;;;6211119;22;19919;-90
2023/08/20 03:35:26;;;;;;;;;;;;;;;;;;6235919;22;19977;-90
2023/08/20 03:37:52;;;;;;;;;;;;;;;;;;6213889;22;19919;-90
2023/08/20 03:40:18;;;;;;;;;;;;;;;;;;6212630;22;20026;-90
2023/08/20 03:42:44;;;;;;;;;;;;;;;;;;6215600;22;20335;-91
2023/08/20 03:45:10;;;;;;;;;;;;;;;;;;6212345;22;20029;-89
2023/08/20 03:47:39;;;;;;;;;;;;;;;;;;6210142;22;19930;-90
2023/08/20 03:50:05;;;;;;;;;;;;;;;;;;6213257;22;19919;-91
2023/08/20 03:52:31;;;;;;;;;;;;;;;;;;6212151;22;19991;-91
2023/08/20 03:54:59;;;;;;;;;;;;;;;;;;6213292;22;19919;-90
2023/08/20 03:57:25;;;;;;;;;;;;;;;;;;6210687;22;19929;-91
2023/08/20 03:59:51;;;;;;;;;;;;;;;;;;6214052;22;19919;-92
2023/08/20 04:02:17;;;;;;;;;;;;;;;;;;6212946;22;20415;-92
2023/08/20 04:04:43;;;;;;;;;;;;;;;;;;6217150;22;19969;-91
2023/08/20 04:07:09;;;;;;;;;;;;;;;;;;6217395;22;20351;-91
2023/08/20 04:09:36;;;;;;;;;;;;;;;;;;6216779;22;19923;-91
2023/08/20 04:12:02;;;;;;;;;;;;;;;;;;6215638;22;19922;-89
2023/08/20 04:14:28;;;;;;;;;;;;;;;;;;6213118;22;20344;-90
2023/08/20 04:16:54;;;;;;;;;;;;;;;;;;6215976;22;19927;-91
2023/08/20 04:19:20;;;;;;;;;;;;;;;;;;6243740;22;19915;-91
2023/08/20 04:21:46;;;;;;;;;;;;;;;;;;6245892;22;19980;-91
2023/08/20 04:24:12;;;;;;;;;;;;;;;;;;6215326;22;20093;-91
2023/08/20 04:26:38;;;;;;;;;;;;;;;;;;6244810;22;19930;-91
2023/08/20 04:29:04;;;;;;;;;;;;;;;;;;6220162;22;19915;-90
2023/08/20 04:31:30;;;;;;;;;;;;;;;;;;6218496;22;20262;-91
2023/08/20 04:33:56;;;;;;;;;;;;;;;;;;6221540;22;19947;-90
2023/08/20 04:36:22;;;;;;;;;;;;;;;;;;6220033;22;19926;-91
2023/08/20 04:38:48;;;;;;;;;;;;;;;;;;6222492;22;19923;-90
2023/08/20 04:41:14;;;;;;;;;;;;;;;;;;6220752;22;20234;-89
2023/08/20 04:43:42;;;;;;;;;;;;;;;;;;6218588;22;19920;-90
2023/08/20 04:46:08;;;;;;;;;;;;;;;;;;6219051;22;19930;-93
2023/08/20 04:48:34;;;;;;;;;;;;;;;;;;6220977;22;19986;-90
2023/08/20 04:51:00;;;;;;;;;;;;;;;;;;6243755;22;19915;-90
2023/08/20 04:53:26;;;;;;;;;;;;;;;;;;6213961;22;19926;-91
2023/08/20 04:55:52;;;;;;;;;;;;;;;;;;6216236;22;20334;-91
2023/08/20 04:58:18;;;;;;;;;;;;;;;;;;6216264;22;19923;-90
2023/08/20 05:00:44;;;;;;;;;;;;;;;;;;6217324;22;19926;-91
2023/08/20 05:03:10;;;;;;;;;;;;;;;;;;6215756;22;19919;-90
2023/08/20 05:05:36;;;;;;;;;;;;;;;;;;6212485;22;19923;-90
2023/08/20 05:08:02;;;;;;;;;;;;;;;;;;6215973;22;19930;-91
2023/08/20 05:10:28;;;;;;;;;;;;;;;;;;6212460;22;19924;-90
2023/08/20 05:12:56;;;;;;;;;;;;;;;;;;6215880;22;19972;-90
2023/08/20 05:15:22;;;;;;;;;;;;;;;;;;6212524;22;20386;-91
2023/08/20 05:17:48;;;;;;;;;;;;;;;;;;6216830;22;19915;-90
2023/08/20 05:20:15;;;;;;;;;;;;;;;;;;6217467;22;19957;-91
2023/08/20 05:22:41;;;;;;;;;;;;;;;;;;6239026;22;19923;-90
2023/08/20 05:25:07;;;;;;;;;;;;;;;;;;6211863;22;19929;-90
2023/08/20 05:27:35;;;;;;;;;;;;;;;;;;6208230;22;19969;-90
2023/08/20 05:30:01;;;;;;;;;;;;;;;;;;6211237;22;19919;-88
2023/08/20 05:32:27;;;;;;;;;;;;;;;;;;6207936;22;19973;-89
2023/08/20 05:34:53;;;;;;;;;;;;;;;;;;6214064;22;19930;-90
2023/08/20 05:37:19;;;;;;;;;;;;;;;;;;6210921;22;19915;-90
2023/08/20 05:39:52;;;;;;;;;;;;;;;;;;6213776;22;19919;-89
2023/08/20 05:42:18;;;;;;;;;;;;;;;;;;6237976;22;19924;-89
2023/08/20 05:44:50;;;;;;;;;;;;;;;;;;6215716;22;19926;-90
2023/08/20 05:47:19;;;;;;;;;;;;;;;;;;6215327;22;19920;-90
2023/08/20 05:49:45;;;;;;;;;;;;;;;;;;6212654;22;20332;-90
2023/08/20 05:52:14;;;;;;;;;;;;;;;;;;6212695;22;20327;-90
2023/08/20 05:57:29;;;;;;;;;;;;;;;;;;6213293;22;20227;-90
2023/08/20 06:00:01;;;;;;;;;;;;;;;;;;6216235;22;19973;-90
2023/08/20 06:02:27;;;;;;;;;;;;;;;;;;6211463;22;19919;-89
2023/08/20 06:04:53;;;;;;;;;;;;;;;;;;6212002;22;20013;-90
2023/08/20 06:07:22;;;;;;;;;;;;;;;;;;6212345;22;19915;-90
2023/08/20 06:10:01;;;;;;;;;;;;;;;;;;6215806;22;19981;-90
2023/08/20 06:12:29;;;;;;;;;;;;;;;;;;6238227;22;19947;-91
2023/08/20 06:15:08;;;;;;;;;;;;;;;;;;6216677;22;19926;-90
2023/08/20 06:17:37;;;;;;;;;;;;;;;;;;6214241;22;19919;-90
2023/08/20 06:20:05;;;;;;;;;;;;;;;;;;6214566;22;19915;-91
2023/08/20 06:22:31;;;;;;;;;;;;;;;;;;6209837;22;19923;-91
2023/08/20 06:24:57;;;;;;;;;;;;;;;;;;6236895;22;20010;-90
2023/08/20 06:27:23;;;;;;;;;;;;;;;;;;6209161;22;20343;-92
2023/08/20 06:29:52;;;;;;;;;;;;;;;;;;6213122;22;19972;-90
2023/08/20 06:32:18;;;;;;;;;;;;;;;;;;6209916;22;19927;-90
2023/08/20 06:34:44;;;;;;;;;;;;;;;;;;6213969;22;19923;-91
2023/08/20 06:37:14;;;;;;;;;;;;;;;;;;6239115;22;19926;-91
2023/08/20 06:39:43;;;;;;;;;;;;;;;;;;6234412;22;19969;-90
2023/08/20 06:42:09;;;;;;;;;;;;;;;;;;6237016;22;19923;-91
2023/08/20 06:44:35;;;;;;;;;;;;;;;;;;6261101;22;19988;-90
2023/08/20 06:47:01;;;;;;;;;;;;;;;;;;6238066;22;19953;-91
2023/08/20 06:49:42;;;;;;;;;;;;;;;;;;6237596;22;20912;-91
2023/08/20 06:52:14;;;;;;;;;;;;;;;;;;6237899;22;19919;-91
2023/08/20 06:54:49;;;;;;;;;;;;;;;;;;6225878;22;20029;-87
2023/08/20 06:57:21;;;;;;;;;;;;;;;;;;6133922;23;19948;-87
2023/08/20 07:00:19;;;;;;;;;;;;;;;;;;;;;
2023/08/20 07:06:07;;;;;;;;;;;;;;;;;;;;;
2023/08/20 07:11:48;;;;;;;;;;;;;;;;;;6153256;23;20552;-87
2023/08/20 07:14:38;;;;;;;;;;;;;;;;;;6055180;23;19925;-87
2023/08/20 07:23:20;;;;;;;;;;;;;;;;;;6164634;23;19931;-87
2023/08/20 07:25:55;;;;;;;;;;;;;;;;;;6109178;23;20321;-86
2023/08/20 07:35:03;;;;;;;;;;;;;;;;;;6161921;23;19954;-87
2023/08/20 07:44:23;;;;;;;;;;;;;;;;;;6075388;23;19951;-87
2023/08/20 07:50:22;;;;;;;;;;;;;;;;;;;;;
2023/08/20 08:26:29;;;;;;;;;;;;;;;;;;6254330;22;19923;-90
2023/08/20 08:28:55;;;;;;;;;;;;;;;;;;6262094;22;19926;-89
2023/08/20 08:31:21;;;;;;;;;;;;;;;;;;6259268;22;19919;-87
2023/08/20 08:33:58;;;;;;;;;;;;;;;;;;6258820;22;19919;-89
2023/08/20 08:36:24;;;;;;;;;;;;;;;;;;6231467;22;19926;-87
2023/08/20 08:38:50;;;;;;;;;;;;;;;;;;6232272;22;19919;-86
2023/08/20 08:41:16;;;;;;;;;;;;;;;;;;6230656;22;19923;-87
2023/08/20 08:43:42;;;;;;;;;;;;;;;;;;6231437;22;19954;-87
2023/08/20 08:46:08;;;;;;;;;;;;;;;;;;6258991;22;19926;-88
2023/08/20 08:48:35;;;;;;;;;;;;;;;;;;6259449;22;19925;-87
2023/08/20 08:51:01;;;;;;;;;;;;;;;;;;6261821;22;20287;-88
2023/08/20 08:53:27;;;;;;;;;;;;;;;;;;6230178;22;20289;-90
2023/08/20 08:55:53;;;;;;;;;;;;;;;;;;6258923;22;19919;-90
2023/08/20 08:58:19;;;;;;;;;;;;;;;;;;6255642;22;19919;-90
2023/08/20 09:00:45;;;;;;;;;;;;;;;;;;6257612;22;19919;-89
2023/08/20 09:03:11;;;;;;;;;;;;;;;;;;6260238;22;19960;-90
2023/08/20 09:05:36;;;;;;;;;;;;;;;;;;6257926;22;20277;-90
2023/08/20 09:08:02;;;;;;;;;;;;;;;;;;6257953;22;20244;-90
2023/08/20 09:10:28;;;;;;;;;;;;;;;;;;6257080;22;20328;-89
2023/08/20 09:12:55;;;;;;;;;;;;;;;;;;6257401;22;20251;-90
2023/08/20 09:15:21;;;;;;;;;;;;;;;;;;6251656;22;20320;-89
2023/08/20 09:17:47;;;;;;;;;;;;;;;;;;6256302;22;19922;-89
2023/08/20 09:20:13;;;;;;;;;;;;;;;;;;6231573;22;20284;-90
2023/08/20 09:22:39;;;;;;;;;;;;;;;;;;6253956;22;19923;-89
2023/08/20 09:25:05;;;;;;;;;;;;;;;;;;6232939;22;19957;-90
2023/08/20 09:27:31;;;;;;;;;;;;;;;;;;6256330;22;20172;-89
2023/08/20 09:29:58;;;;;;;;;;;;;;;;;;6233344;22;19919;-89
2023/08/20 09:32:24;;;;;;;;;;;;;;;;;;6229891;22;20361;-89
2023/08/20 09:34:50;;;;;;;;;;;;;;;;;;6259813;22;19915;-90
2023/08/20 09:37:19;;;;;;;;;;;;;;;;;;6257557;22;19994;-89
2023/08/20 09:39:45;;;;;;;;;;;;;;;;;;6233581;22;20287;-90
2023/08/20 09:42:11;;;;;;;;;;;;;;;;;;6256980;22;20384;-91
2023/08/20 09:44:37;;;;;;;;;;;;;;;;;;6231213;22;19980;-91
2023/08/20 09:47:04;;;;;;;;;;;;;;;;;;6256447;22;20336;-90
2023/08/20 09:49:30;;;;;;;;;;;;;;;;;;6256799;22;19976;-89
2023/08/20 09:51:59;;;;;;;;;;;;;;;;;;6256843;22;19923;-89
2023/08/20 09:54:25;;;;;;;;;;;;;;;;;;6228674;22;19941;-90
2023/08/20 09:57:24;;;;;;;;;;;;;;;;;;6254697;22;20860;-89
2023/08/20 09:59:56;;;;;;;;;;;;;;;;;;6265711;22;19930;-88
2023/08/20 10:02:52;;;;;;;;;;;;;;;;;;6241552;22;19926;-90
2023/08/20 10:08:40;;;;;;;;;;;;;;;;;;6271071;22;20557;-89
2023/08/20 10:11:06;;;;;;;;;;;;;;;;;;6237528;22;19926;-89
2023/08/20 10:13:32;;;;;;;;;;;;;;;;;;6232302;22;19968;-89
2023/08/20 10:16:00;;;;;;;;;;;;;;;;;;6237586;22;19939;-90
2023/08/20 10:18:26;;;;;;;;;;;;;;;;;;6237191;22;20037;-90
2023/08/20 10:20:53;;;;;;;;;;;;;;;;;;6236196;22;19926;-90
2023/08/20 10:23:28;;;;;;;;;;;;;;;;;;6231144;22;19919;-89
2023/08/20 10:25:54;;;;;;;;;;;;;;;;;;6262046;22;20250;-90
2023/08/20 10:28:23;;;;;;;;;;;;;;;;;;6233901;22;20017;-90
2023/08/20 10:30:51;;;;;;;;;;;;;;;;;;6211507;22;19915;-90
2023/08/20 10:33:20;;;;;;;;;;;;;;;;;;6260223;22;19973;-90
2023/08/20 10:35:49;;;;;;;;;;;;;;;;;;6237940;22;19998;-89
2023/08/20 10:38:23;;;;;;;;;;;;;;;;;;6235141;22;20545;-89
2023/08/20 10:40:51;;;;;;;;;;;;;;;;;;6235432;22;20013;-89
2023/08/20 10:43:23;;;;;;;;;;;;;;;;;;6235799;22;19934;-89
2023/08/20 10:45:52;;;;;;;;;;;;;;;;;;6234226;22;19919;-90
2023/08/20 10:48:21;;;;;;;;;;;;;;;;;;6233777;22;19919;-90
2023/08/20 10:50:47;;;;;;;;;;;;;;;;;;6261695;22;19926;-90
2023/08/20 10:56:08;;;;;;;;;;;;;;;;;;6264779;22;19919;-90
2023/08/20 10:58:42;;;;;;;;;;;;;;;;;;6236252;22;19926;-90
2023/08/20 11:04:00;;;;;;;;;;;;;;;;;;6241469;22;19919;-89
2023/08/20 11:06:41;;;;;;;;;;;;;;;;;;6268564;22;19919;-90
2023/08/20 11:09:07;;;;;;;;;;;;;;;;;;6236053;22;19919;-89
2023/08/20 11:11:36;;;;;;;;;;;;;;;;;;6235346;22;20074;-90
2023/08/20 11:14:11;;;;;;;;;;;;;;;;;;6241059;22;19959;-90
2023/08/20 11:16:37;;;;;;;;;;;;;;;;;;6236421;22;19965;-90
2023/08/20 12:34:25;;;;;;;;;;;;;;;;;;6267230;22;19919;-89
2023/08/20 12:37:10;;;;;;;;;;;;;;;;;;;;;
2023/08/20 13:02:42;;;;;;;;;;;;;;;;;;6225438;22;20005;-89
2023/08/20 13:05:23;;;;;;;;;;;;;;;;;;6239099;22;19915;-91
2023/08/20 13:07:55;;;;;;;;;;;;;;;;;;6240360;22;20496;-90
2023/08/20 13:10:21;;;;;;;;;;;;;;;;;;6263722;22;19921;-91
2023/08/20 13:12:50;;;;;;;;;;;;;;;;;;6238142;22;20328;-90
2023/08/20 13:15:32;;;;;;;;;;;;;;;;;;;;;
2023/08/20 13:18:08;;;;;;;;;;;;;;;;;;6258400;22;20026;-89
2023/08/20 13:20:37;;;;;;;;;;;;;;;;;;6232199;22;19923;-90
2023/08/20 13:23:06;;;;;;;;;;;;;;;;;;6240249;22;19988;-90
2023/08/20 13:25:35;;;;;;;;;;;;;;;;;;6239864;22;19961;-90
2023/08/20 13:28:11;;;;;;;;;;;;;;;;;;6240954;22;19969;-89
2023/08/20 14:49:56;;;;;;;;;;;;;;;;;;6221848;22;19997;31
2023/08/20 14:52:22;;;;;;;;;;;;;;;;;;6160982;23;19920;-90
2023/08/20 14:54:48;;;;;;;;;;;;;;;;;;6112630;23;19920;-90
2023/08/20 14:57:17;;;;;;;;;;;;;;;;;;6136999;23;19924;-90
2023/08/20 14:59:43;;;;;;;;;;;;;;;;;;6112040;23;19927;-89
2023/08/20 15:02:09;;;;;;;;;;;;;;;;;;6137421;23;19921;-90
2023/08/20 15:04:35;;;;;;;;;;;;;;;;;;6109714;23;19935;-90
2023/08/20 15:07:01;;;;;;;;;;;;;;;;;;6112414;23;20249;-90
2023/08/20 15:09:27;;;;;;;;;;;;;;;;;;6137346;23;20252;-91
2023/08/20 15:11:53;;;;;;;;;;;;;;;;;;6138701;23;19920;-90
2023/08/20 15:14:19;;;;;;;;;;;;;;;;;;6110467;23;19920;-90
2023/08/20 15:16:45;;;;;;;;;;;;;;;;;;6111576;23;19925;-90
2023/08/20 15:19:11;;;;;;;;;;;;;;;;;;6135318;23;19996;-90
2023/08/20 15:21:37;;;;;;;;;;;;;;;;;;6134700;23;20115;-90
2023/08/20 15:24:03;;;;;;;;;;;;;;;;;;6137918;23;19947;-90
2023/08/20 15:26:29;;;;;;;;;;;;;;;;;;6136126;23;19928;-90
2023/08/20 15:28:55;;;;;;;;;;;;;;;;;;6135463;23;19987;-90
2023/08/20 15:31:21;;;;;;;;;;;;;;;;;;6107732;23;20345;-90
2023/08/20 15:33:47;;;;;;;;;;;;;;;;;;6110005;23;20245;-90
2023/08/20 15:36:13;;;;;;;;;;;;;;;;;;6114788;23;19920;-90
2023/08/20 15:38:39;;;;;;;;;;;;;;;;;;6136524;23;19927;-90
2023/08/20 15:41:05;;;;;;;;;;;;;;;;;;6091234;23;20297;-90
2023/08/20 15:43:31;;;;;;;;;;;;;;;;;;6084242;23;19968;-91
2023/08/20 15:45:57;;;;;;;;;;;;;;;;;;6138201;23;19935;-90
2023/08/20 15:48:23;;;;;;;;;;;;;;;;;;6086217;23;19916;-90
2023/08/20 15:50:49;;;;;;;;;;;;;;;;;;6090529;23;19924;-90
2023/08/20 15:53:15;;;;;;;;;;;;;;;;;;6109024;23;19979;-90
2023/08/20 15:55:41;;;;;;;;;;;;;;;;;;6137302;23;19921;-90
2023/08/20 15:58:07;;;;;;;;;;;;;;;;;;6113594;23;20452;-90
2023/08/20 16:00:35;;;;;;;;;;;;;;;;;;6106759;23;19952;-88
2023/08/20 16:03:04;;;;;;;;;;;;;;;;;;6137670;23;19944;-90
2023/08/20 16:05:30;;;;;;;;;;;;;;;;;;6109504;23;20338;-90
2023/08/20 16:07:56;;;;;;;;;;;;;;;;;;6139941;23;19921;-91
2023/08/20 16:10:22;;;;;;;;;;;;;;;;;;6135754;23;20338;-90
2023/08/20 16:12:48;;;;;;;;;;;;;;;;;;6115005;23;19927;-90
2023/08/20 16:15:14;;;;;;;;;;;;;;;;;;6136518;23;20363;-90
2023/08/20 16:17:40;;;;;;;;;;;;;;;;;;6113493;23;19920;-90
2023/08/20 16:20:07;;;;;;;;;;;;;;;;;;6115425;23;19959;-90
2023/08/20 16:22:33;;;;;;;;;;;;;;;;;;6112688;23;20253;-89
2023/08/20 16:24:59;;;;;;;;;;;;;;;;;;6139009;23;19931;-91
2023/08/20 16:27:25;;;;;;;;;;;;;;;;;;6110099;23;19925;-90
2023/08/20 16:29:51;;;;;;;;;;;;;;;;;;6112638;23;20023;-91
2023/08/20 16:32:17;;;;;;;;;;;;;;;;;;6111551;23;20312;-90
2023/08/20 16:34:43;;;;;;;;;;;;;;;;;;6114257;23;19958;-90
2023/08/20 16:37:09;;;;;;;;;;;;;;;;;;6111802;23;19955;-90
2023/08/20 16:39:35;;;;;;;;;;;;;;;;;;6110986;23;20330;-90
2023/08/20 16:42:01;;;;;;;;;;;;;;;;;;6108801;23;19928;-90
2023/08/20 16:44:27;;;;;;;;;;;;;;;;;;6133598;23;20261;-90
2023/08/20 16:46:53;;;;;;;;;;;;;;;;;;6111082;23;20000;-90
2023/08/20 16:49:19;;;;;;;;;;;;;;;;;;6108193;23;19920;-90
2023/08/20 16:51:46;;;;;;;;;;;;;;;;;;6112624;23;19932;-90
2023/08/20 16:54:12;;;;;;;;;;;;;;;;;;6111543;23;20524;-91
2023/08/20 16:56:38;;;;;;;;;;;;;;;;;;6110333;23;19959;-90
2023/08/20 16:59:04;;;;;;;;;;;;;;;;;;6114375;23;20098;-90
2023/08/20 17:01:30;;;;;;;;;;;;;;;;;;6110063;23;19970;-91
2023/08/20 17:03:56;;;;;;;;;;;;;;;;;;6136241;23;19924;-90
2023/08/20 17:06:22;;;;;;;;;;;;;;;;;;6112563;23;19920;-90
2023/08/20 17:08:48;;;;;;;;;;;;;;;;;;6112114;23;19917;-91
2023/08/20 17:11:14;;;;;;;;;;;;;;;;;;6139704;23;20356;-90
2023/08/20 17:13:40;;;;;;;;;;;;;;;;;;6106869;23;19927;-90
2023/08/20 17:16:06;;;;;;;;;;;;;;;;;;6111654;23;19921;-90
2023/08/20 17:18:32;;;;;;;;;;;;;;;;;;6108566;23;19944;-91
2023/08/20 17:20:59;;;;;;;;;;;;;;;;;;6112880;23;19920;-90
2023/08/20 17:23:25;;;;;;;;;;;;;;;;;;6112765;23;19976;-90
2023/08/20 17:25:51;;;;;;;;;;;;;;;;;;6110419;23;19920;-91
2023/08/20 17:28:17;;;;;;;;;;;;;;;;;;6109178;23;19929;-90
2023/08/20 17:30:46;;;;;;;;;;;;;;;;;;6109611;23;20385;-90
2023/08/20 17:33:15;;;;;;;;;;;;;;;;;;6136613;23;19959;-90
2023/08/20 17:35:42;;;;;;;;;;;;;;;;;;6111646;23;19920;-91
2023/08/20 17:38:09;;;;;;;;;;;;;;;;;;6134263;23;19920;-91
2023/08/20 17:40:35;;;;;;;;;;;;;;;;;;6107845;23;19924;-91
2023/08/20 17:43:01;;;;;;;;;;;;;;;;;;6109925;23;19921;-91
2023/08/20 17:45:27;;;;;;;;;;;;;;;;;;6133538;23;19963;-90
2023/08/20 17:47:53;;;;;;;;;;;;;;;;;;6112049;23;20363;-91
2023/08/20 17:50:20;;;;;;;;;;;;;;;;;;6137860;23;19924;-91
2023/08/20 17:52:46;;;;;;;;;;;;;;;;;;6142342;23;19971;-91
2023/08/20 17:55:12;;;;;;;;;;;;;;;;;;6141482;23;20041;-91
2023/08/20 17:57:38;;;;;;;;;;;;;;;;;;6114799;23;20269;-91
2023/08/20 18:00:04;;;;;;;;;;;;;;;;;;6141427;23;19924;-91
2023/08/20 18:02:30;;;;;;;;;;;;;;;;;;6114689;23;20231;-91
2023/08/20 18:04:56;;;;;;;;;;;;;;;;;;6117725;23;19947;-91
2023/08/20 18:07:22;;;;;;;;;;;;;;;;;;6115743;23;19916;-90
2023/08/20 18:09:48;;;;;;;;;;;;;;;;;;6141902;23;19917;-90
2023/08/20 18:12:14;;;;;;;;;;;;;;;;;;6120013;23;19931;-90
2023/08/20 18:14:40;;;;;;;;;;;;;;;;;;6114636;23;19959;-90
2023/08/20 18:17:06;;;;;;;;;;;;;;;;;;6116187;23;19925;-90
2023/08/20 18:19:32;;;;;;;;;;;;;;;;;;6111582;23;19920;-90
2023/08/20 18:21:58;;;;;;;;;;;;;;;;;;6140963;23;19966;-90
2023/08/20 18:24:27;;;;;;;;;;;;;;;;;;6115617;23;19924;-90
2023/08/20 18:26:53;;;;;;;;;;;;;;;;;;6144005;23;19962;-90
2023/08/20 18:29:19;;;;;;;;;;;;;;;;;;6139024;23;19944;-89
2023/08/20 18:31:48;;;;;;;;;;;;;;;;;;6118619;23;19924;-89
2023/08/20 18:34:15;;;;;;;;;;;;;;;;;;6113635;23;19928;-89
2023/08/20 18:36:41;;;;;;;;;;;;;;;;;;6112929;23;19975;-90
2023/08/20 18:39:09;;;;;;;;;;;;;;;;;;6140515;23;20345;-90
2023/08/20 18:41:35;;;;;;;;;;;;;;;;;;6114027;23;19947;-90
2023/08/20 18:44:02;;;;;;;;;;;;;;;;;;6138706;23;19924;-90
2023/08/20 18:46:28;;;;;;;;;;;;;;;;;;6113061;23;19920;-90
2023/08/20 18:48:54;;;;;;;;;;;;;;;;;;6140455;23;20334;-90
2023/08/20 18:51:20;;;;;;;;;;;;;;;;;;6111188;23;19920;-89
2023/08/20 18:53:46;;;;;;;;;;;;;;;;;;6114615;23;20447;-90
2023/08/20 18:56:12;;;;;;;;;;;;;;;;;;6141153;23;19959;-89
2023/08/20 18:58:38;;;;;;;;;;;;;;;;;;6114694;23;20341;-90
2023/08/20 19:01:04;;;;;;;;;;;;;;;;;;6116876;23;19920;-89
2023/08/20 19:03:30;;;;;;;;;;;;;;;;;;6115159;23;19956;-89
2023/08/20 19:05:56;;;;;;;;;;;;;;;;;;6114176;23;19928;-89
2023/08/20 19:08:22;;;;;;;;;;;;;;;;;;6111294;23;19923;-89
2023/08/20 19:10:49;;;;;;;;;;;;;;;;;;6116058;23;19995;-89
2023/08/20 19:13:16;;;;;;;;;;;;;;;;;;6142590;23;19924;-89
2023/08/20 19:15:45;;;;;;;;;;;;;;;;;;6142330;23;19928;-89
2023/08/20 19:18:11;;;;;;;;;;;;;;;;;;6114312;23;19920;-89
2023/08/20 19:20:40;;;;;;;;;;;;;;;;;;6113989;23;20691;-89
2023/08/20 21:04:21;;;;;;;;;;;;;;;;;;6065470;23;19968;-85
2023/08/20 21:10:06;;;;;;;;;;;;;;;;;;6048640;23;19933;-84
2023/08/20 21:12:32;;;;;;;;;;;;;;;;;;6109261;23;20442;-85
2023/08/20 21:14:58;;;;;;;;;;;;;;;;;;6148985;23;19964;-84
2023/08/20 21:17:23;;;;;;;;;;;;;;;;;;6159122;22;19973;-84
2023/08/20 21:19:52;;;;;;;;;;;;;;;;;;6214983;22;20344;-84
2023/08/20 21:22:18;;;;;;;;;;;;;;;;;;6210928;22;19923;-84
2023/08/20 21:35:11;;;;;;;;;;;;;;;;;;6250608;22;20010;-84
2023/08/20 21:37:40;;;;;;;;;;;;;;;;;;6234208;22;19965;-84
2023/08/20 21:42:59;;;;;;;;;;;;;;;;;;6195556;22;19920;-85
2023/08/20 21:45:25;;;;;;;;;;;;;;;;;;6179415;23;19926;-84
2023/08/20 21:47:51;;;;;;;;;;;;;;;;;;6181825;23;20299;-85
2023/08/20 21:50:35;;;;;;;;;;;;;;;;;;6180716;23;19919;-86
2023/08/20 21:55:56;;;;;;;;;;;;;;;;;;6204821;23;20215;-85
2023/08/20 21:58:28;;;;;;;;;;;;;;;;;;6178583;23;19919;-85
2023/08/20 22:00:54;;;;;;;;;;;;;;;;;;6180998;23;20248;-85
2023/08/20 22:03:23;;;;;;;;;;;;;;;;;;6178944;23;20014;-85
2023/08/20 22:05:49;;;;;;;;;;;;;;;;;;6209866;23;19926;-89
2023/08/20 22:08:17;;;;;;;;;;;;;;;;;;6182797;23;19920;-89
2023/08/20 22:10:45;;;;;;;;;;;;;;;;;;6181263;23;19924;-90
2023/08/20 22:13:14;;;;;;;;;;;;;;;;;;6204823;23;20164;-89
2023/08/20 22:15:55;;;;;;;;;;;;;;;;;;6181348;23;20002;-89
2023/08/20 22:18:37;;;;;;;;;;;;;;;;;;6182989;23;19920;-89
2023/08/20 22:21:03;;;;;;;;;;;;;;;;;;6205864;23;20330;-89
2023/08/20 22:23:29;;;;;;;;;;;;;;;;;;6203101;23;19924;-89
2023/08/20 22:25:55;;;;;;;;;;;;;;;;;;6182279;23;20295;-89
2023/08/20 22:28:22;;;;;;;;;;;;;;;;;;6176205;23;20394;-90
2023/08/20 22:30:48;;;;;;;;;;;;;;;;;;6204524;23;19924;-89
2023/08/20 22:33:14;;;;;;;;;;;;;;;;;;6182736;23;20328;-89
2023/08/20 22:35:40;;;;;;;;;;;;;;;;;;6181390;23;19970;-90
2023/08/20 22:38:06;;;;;;;;;;;;;;;;;;6182369;23;19919;-89
2023/08/20 22:40:32;;;;;;;;;;;;;;;;;;6204745;23;19942;-89
2023/08/20 22:42:58;;;;;;;;;;;;;;;;;;6206441;23;20336;-90
2023/08/20 22:45:24;;;;;;;;;;;;;;;;;;6179148;23;20193;-89
2023/08/20 22:47:50;;;;;;;;;;;;;;;;;;6206391;23;19919;-89
2023/08/20 22:50:19;;;;;;;;;;;;;;;;;;6182172;23;20531;-89
2023/08/20 22:52:45;;;;;;;;;;;;;;;;;;6204433;23;19919;-89
2023/08/20 22:55:11;;;;;;;;;;;;;;;;;;6181922;23;19990;-89
2023/08/20 22:57:37;;;;;;;;;;;;;;;;;;6179911;23;20465;-90
2023/08/20 23:00:05;;;;;;;;;;;;;;;;;;6180362;23;19930;-90
2023/08/20 23:02:37;;;;;;;;;;;;;;;;;;6205208;23;19924;-88
2023/08/20 23:05:04;;;;;;;;;;;;;;;;;;6182923;23;19990;-89
2023/08/20 23:07:33;;;;;;;;;;;;;;;;;;6181864;23;20257;-89
2023/08/20 23:09:59;;;;;;;;;;;;;;;;;;6209436;23;19951;-89
2023/08/20 23:12:25;;;;;;;;;;;;;;;;;;6206404;23;19919;-89
2023/08/20 23:15:12;;;;;;;;;;;;;;;;;;6182151;23;21300;-89
2023/08/20 23:17:46;;;;;;;;;;;;;;;;;;6204028;23;19919;-90
2023/08/20 23:20:13;;;;;;;;;;;;;;;;;;6207732;23;19931;-89
2023/08/20 23:22:39;;;;;;;;;;;;;;;;;;6181353;23;19927;-89
2023/08/20 23:28:03;;;;;;;;;;;;;;;;;;6127335;23;20070;-90
2023/08/20 23:30:35;;;;;;;;;;;;;;;;;;6180291;23;19927;-89
2023/08/20 23:33:02;;;;;;;;;;;;;;;;;;6184036;23;20540;-89
2023/08/20 23:35:33;;;;;;;;;;;;;;;;;;6202918;23;19962;-90
2023/08/20 23:43:53;;;;;;;;;;;;;;;;;;6193672;23;19931;-89
2023/08/20 23:46:43;;;;;;;;;;;;;;;;;;6181580;23;19926;-90
2023/08/20 23:49:14;;;;;;;;;;;;;;;;;;6183647;23;20226;-90
2023/08/20 23:51:55;;;;;;;;;;;;;;;;;;6183668;23;20017;-89
2023/08/20 23:54:34;;;;;;;;;;;;;;;;;;;;;